sensor_id;sensor_type;location;lat;lon;timestamp;pressure;altitude;pressure_sealevel;temperature;humidity
67931;BME280;63902;52.000;5.954;2023-02-14T00:00:31;103100.69;;;2.22;100.00
67931;BME280;63902;52.000;5.954;2023-02-14T00:01:31;103102.47;;;2.23;100.00
67931;BME280;63902;52.000;5.954;2023-02-14T00:02:33;103098.97;;;2.22;100.00
67931;BME280;63902;52.000;5.954;2023-02-14T00:03:34;103098.91;;;2.21;100.00
67931;BME280;63902;52.000;5.954;2023-02-14T00:04:34;103096.34;;;2.22;100.00
67931;BME280;63902;52.000;5.954;2023-02-14T00:05:35;103101.56;;;2.22;100.00
67931;BME280;63902;52.000;5.954;2023-02-14T00:06:35;103075.84;;;2.09;100.00
67931;BME280;63902;52.000;5.954;2023-02-14T00:07:36;103098.91;;;2.21;100.00
67931;BME280;63902;52.000;5.954;2023-02-14T00:08:36;103097.13;;;2.20;100.00
67931;BME280;63902;52.000;5.954;2023-02-14T00:09:37;103093.66;;;2.21;100.00
67931;BME280;63902;52.000;5.954;2023-02-14T00:10:37;103107.78;;;2.26;100.00
67931;BME280;63902;52.000;5.954;2023-02-14T00:11:38;103093.66;;;2.21;100.00
67931;BME280;63902;52.000;5.954;2023-02-14T00:12:39;103103.25;;;2.20;100.00
67931;BME280;63902;52.000;5.954;2023-02-14T00:13:39;103094.56;;;2.21;100.00
67931;BME280;63902;52.000;5.954;2023-02-14T00:14:40;103095.38;;;2.19;100.00
67931;BME280;63902;52.000;5.954;2023-02-14T00:15:40;103098.78;;;2.16;100.00
67931;BME280;63902;52.000;5.954;2023-02-14T00:16:42;103098.72;;;2.15;100.00
67931;BME280;63902;52.000;5.954;2023-02-14T00:17:44;103099.56;;;2.14;100.00
67931;BME280;63902;52.000;5.954;2023-02-14T00:18:44;103092.53;;;2.13;100.00
67931;BME280;63902;52.000;5.954;2023-02-14T00:19:45;103092.66;;;2.16;100.00
67931;BME280;63902;52.000;5.954;2023-02-14T00:20:45;103084.81;;;2.16;100.00
67931;BME280;63902;52.000;5.954;2023-02-14T00:21:46;103096.97;;;2.15;100.00
67931;BME280;63902;52.000;5.954;2023-02-14T00:22:47;103092.53;;;2.13;100.00
67931;BME280;63902;52.000;5.954;2023-02-14T00:23:47;103094.25;;;2.11;100.00
67931;BME280;63902;52.000;5.954;2023-02-14T00:24:48;103087.19;;;2.08;100.00
67931;BME280;63902;52.000;5.954;2023-02-14T00:25:48;103095.91;;;2.09;100.00
67931;BME280;63902;52.000;5.954;2023-02-14T00:26:49;103080.97;;;2.05;100.00
67931;BME280;63902;52.000;5.954;2023-02-14T00:27:50;103085.63;;;2.15;100.00
67931;BME280;63902;52.000;5.954;2023-02-14T00:28:50;103085.63;;;2.15;100.00
67931;BME280;63902;52.000;5.954;2023-02-14T00:29:51;103095.16;;;2.13;100.00
67931;BME280;63902;52.000;5.954;2023-02-14T00:30:51;103093.47;;;2.15;100.00
67931;BME280;63902;52.000;5.954;2023-02-14T00:31:52;103095.06;;;2.10;100.00
67931;BME280;63902;52.000;5.954;2023-02-14T00:32:53;103077.44;;;2.04;100.00
67931;BME280;63902;52.000;5.954;2023-02-14T00:33:54;103092.53;;;2.13;100.00
67931;BME280;63902;52.000;5.954;2023-02-14T00:34:55;103095.97;;;2.10;100.00
67931;BME280;63902;52.000;5.954;2023-02-14T00:35:55;103092.44;;;2.10;100.00
67931;BME280;63902;52.000;5.954;2023-02-14T00:36:56;103090.75;;;2.10;100.00
67931;BME280;63902;52.000;5.954;2023-02-14T00:37:56;103090.75;;;2.10;100.00
67931;BME280;63902;52.000;5.954;2023-02-14T00:38:57;103086.22;;;2.05;100.00
67931;BME280;63902;52.000;5.954;2023-02-14T00:39:57;103091.56;;;2.09;100.00
67931;BME280;63902;52.000;5.954;2023-02-14T00:40:58;103093.31;;;2.09;100.00
67931;BME280;63902;52.000;5.954;2023-02-14T00:41:58;103089.81;;;2.08;100.00
67931;BME280;63902;52.000;5.954;2023-02-14T00:42:59;103076.53;;;2.02;100.00
67931;BME280;63902;52.000;5.954;2023-02-14T00:43:59;103089.75;;;2.07;100.00
67931;BME280;63902;52.000;5.954;2023-02-14T00:45:00;103086.16;;;2.03;100.00
67931;BME280;63902;52.000;5.954;2023-02-14T00:46:01;103085.28;;;2.03;100.00
67931;BME280;63902;52.000;5.954;2023-02-14T00:47:01;103079.78;;;1.95;100.00
67931;BME280;63902;52.000;5.954;2023-02-14T00:48:03;103085.19;;;2.01;100.00
67931;BME280;63902;52.000;5.954;2023-02-14T00:49:04;103092.16;;;1.99;100.00
67931;BME280;63902;52.000;5.954;2023-02-14T00:50:05;103087.00;;;2.02;100.00
67931;BME280;63902;52.000;5.954;2023-02-14T00:51:06;103083.38;;;1.98;100.00
67931;BME280;63902;52.000;5.954;2023-02-14T00:52:06;103091.31;;;2.01;100.00
67931;BME280;63902;52.000;5.954;2023-02-14T00:53:07;103089.66;;;2.04;100.00
67931;BME280;63902;52.000;5.954;2023-02-14T00:54:07;103090.59;;;2.06;100.00
67931;BME280;63902;52.000;5.954;2023-02-14T00:55:08;103086.09;;;2.01;100.00
67931;BME280;63902;52.000;5.954;2023-02-14T00:56:08;103087.03;;;2.04;100.00
67931;BME280;63902;52.000;5.954;2023-02-14T00:57:08;103085.28;;;2.03;100.00
67931;BME280;63902;52.000;5.954;2023-02-14T00:58:09;103086.94;;;2.00;100.00
67931;BME280;63902;52.000;5.954;2023-02-14T00:59:10;103084.22;;;1.97;100.00
67931;BME280;63902;52.000;5.954;2023-02-14T01:00:12;103081.56;;;1.96;100.00
67931;BME280;63902;52.000;5.954;2023-02-14T01:01:13;103086.84;;;1.97;100.00
67931;BME280;63902;52.000;5.954;2023-02-14T01:02:14;103086.84;;;1.97;100.00
67931;BME280;63902;52.000;5.954;2023-02-14T01:03:16;103086.00;;;1.98;100.00
67931;BME280;63902;52.000;5.954;2023-02-14T01:04:17;103081.63;;;1.97;100.00
67931;BME280;63902;52.000;5.954;2023-02-14T01:05:17;103077.22;;;1.96;100.00
67931;BME280;63902;52.000;5.954;2023-02-14T01:06:18;103077.13;;;1.93;100.00
67931;BME280;63902;52.000;5.954;2023-02-14T01:07:19;103077.00;;;1.90;100.00
67931;BME280;63902;52.000;5.954;2023-02-14T01:08:19;103082.22;;;1.89;100.00
67931;BME280;63902;52.000;5.954;2023-02-14T01:09:20;103080.41;;;1.86;100.00
67931;BME280;63902;52.000;5.954;2023-02-14T01:10:20;103080.41;;;1.86;100.00
67931;BME280;63902;52.000;5.954;2023-02-14T01:11:22;103090.00;;;1.87;100.00
67931;BME280;63902;52.000;5.954;2023-02-14T01:12:23;103089.97;;;1.86;100.00
67931;BME280;63902;52.000;5.954;2023-02-14T01:13:23;103081.09;;;1.81;100.00
67931;BME280;63902;52.000;5.954;2023-02-14T01:14:24;103084.66;;;1.83;100.00
67931;BME280;63902;52.000;5.954;2023-02-14T01:15:24;103084.66;;;1.83;100.00
67931;BME280;63902;52.000;5.954;2023-02-14T01:16:26;103084.59;;;1.81;100.00
67931;BME280;63902;52.000;5.954;2023-02-14T01:17:27;103080.13;;;1.77;100.00
67931;BME280;63902;52.000;5.954;2023-02-14T01:18:29;103079.97;;;1.72;100.00
67931;BME280;63902;52.000;5.954;2023-02-14T01:19:29;103069.31;;;1.66;100.00
67931;BME280;63902;52.000;5.954;2023-02-14T01:20:30;103079.91;;;1.71;100.00
67931;BME280;63902;52.000;5.954;2023-02-14T01:21:32;103083.38;;;1.70;100.00
67931;BME280;63902;52.000;5.954;2023-02-14T01:22:34;103083.38;;;1.70;100.00
67931;BME280;63902;52.000;5.954;2023-02-14T01:23:34;103080.72;;;1.68;100.00
67931;BME280;63902;52.000;5.954;2023-02-14T01:24:35;103071.84;;;1.65;100.00
67931;BME280;63902;52.000;5.954;2023-02-14T01:25:36;103085.03;;;1.68;100.00
67931;BME280;63902;52.000;5.954;2023-02-14T01:26:36;103082.41;;;1.68;100.00
67931;BME280;63902;52.000;5.954;2023-02-14T01:27:37;103080.66;;;1.67;100.00
67931;BME280;63902;52.000;5.954;2023-02-14T01:28:38;103076.22;;;1.64;100.00
67931;BME280;63902;52.000;5.954;2023-02-14T01:29:38;103081.50;;;1.66;100.00
67931;BME280;63902;52.000;5.954;2023-02-14T01:30:39;103080.66;;;1.67;100.00
67931;BME280;63902;52.000;5.954;2023-02-14T01:31:39;103081.41;;;1.63;100.00
67931;BME280;63902;52.000;5.954;2023-02-14T01:32:40;103076.19;;;1.63;100.00
67931;BME280;63902;52.000;5.954;2023-02-14T01:33:43;103080.56;;;1.64;100.00
67931;BME280;63902;52.000;5.954;2023-02-14T01:34:44;103083.16;;;1.64;100.00
67931;BME280;63902;52.000;5.954;2023-02-14T01:35:44;103076.97;;;1.60;100.00
67931;BME280;63902;52.000;5.954;2023-02-14T01:36:45;103074.34;;;1.60;100.00
67931;BME280;63902;52.000;5.954;2023-02-14T01:37:45;103077.78;;;1.59;100.00
67931;BME280;63902;52.000;5.954;2023-02-14T01:38:46;103077.66;;;1.54;100.00
67931;BME280;63902;52.000;5.954;2023-02-14T01:39:47;103073.06;;;1.47;100.00
67931;BME280;63902;52.000;5.954;2023-02-14T01:40:47;103078.53;;;1.55;100.00
67931;BME280;63902;52.000;5.954;2023-02-14T01:41:48;103066.97;;;1.48;100.00
67931;BME280;63902;52.000;5.954;2023-02-14T01:42:48;103080.31;;;1.56;100.00
67931;BME280;63902;52.000;5.954;2023-02-14T01:43:51;103080.31;;;1.56;100.00
67931;BME280;63902;52.000;5.954;2023-02-14T01:44:58;103081.97;;;1.54;100.00
67931;BME280;63902;52.000;5.954;2023-02-14T01:45:59;103075.84;;;1.53;100.00
67931;BME280;63902;52.000;5.954;2023-02-14T01:47:01;103077.59;;;1.53;100.00
67931;BME280;63902;52.000;5.954;2023-02-14T01:48:04;103074.97;;;1.53;100.00
67931;BME280;63902;52.000;5.954;2023-02-14T01:49:08;103074.00;;;1.49;100.00
67931;BME280;63902;52.000;5.954;2023-02-14T01:50:14;103073.94;;;1.48;100.00
67931;BME280;63902;52.000;5.954;2023-02-14T01:51:18;103083.50;;;1.47;100.00
67931;BME280;63902;52.000;5.954;2023-02-14T01:52:21;103080.00;;;1.47;100.00
67931;BME280;63902;52.000;5.954;2023-02-14T01:53:25;103076.59;;;1.49;100.00
67931;BME280;63902;52.000;5.954;2023-02-14T01:54:28;103080.91;;;1.47;100.00
67931;BME280;63902;52.000;5.954;2023-02-14T01:55:32;103081.69;;;1.45;100.00
67931;BME280;63902;52.000;5.954;2023-02-14T01:56:37;103068.56;;;1.43;100.00
67931;BME280;63902;52.000;5.954;2023-02-14T01:57:43;103064.25;;;1.45;100.00
67931;BME280;63902;52.000;5.954;2023-02-14T01:58:45;103072.19;;;1.48;100.00
67931;BME280;63902;52.000;5.954;2023-02-14T01:59:51;103070.44;;;1.47;100.00
67931;BME280;63902;52.000;5.954;2023-02-14T02:00:54;103072.09;;;1.45;100.00
67931;BME280;63902;52.000;5.954;2023-02-14T02:01:55;103074.69;;;1.44;100.00
67931;BME280;63902;52.000;5.954;2023-02-14T02:02:56;103073.13;;;1.49;100.00
67931;BME280;63902;52.000;5.954;2023-02-14T02:04:00;103074.81;;;1.48;100.00
67931;BME280;63902;52.000;5.954;2023-02-14T02:05:04;103081.00;;;1.50;100.00
67931;BME280;63902;52.000;5.954;2023-02-14T02:06:08;103074.03;;;1.51;100.00
67931;BME280;63902;52.000;5.954;2023-02-14T02:07:16;103075.75;;;1.50;100.00
67931;BME280;63902;52.000;5.954;2023-02-14T02:08:18;103073.91;;;1.46;100.00
67931;BME280;63902;52.000;5.954;2023-02-14T02:09:22;103078.13;;;1.43;100.00
67931;BME280;63902;52.000;5.954;2023-02-14T02:10:24;103079.06;;;1.45;100.00
67931;BME280;63902;52.000;5.954;2023-02-14T02:11:25;103068.56;;;1.43;100.00
67931;BME280;63902;52.000;5.954;2023-02-14T02:12:26;103070.34;;;1.44;100.00
67931;BME280;63902;52.000;5.954;2023-02-14T02:13:26;103069.47;;;1.45;100.00
67931;BME280;63902;52.000;5.954;2023-02-14T02:14:27;103063.28;;;1.42;100.00
67931;BME280;63902;52.000;5.954;2023-02-14T02:15:30;103065.97;;;1.43;100.00
67931;BME280;63902;52.000;5.954;2023-02-14T02:17:02;103066.69;;;1.39;100.00
67931;BME280;63902;52.000;5.954;2023-02-14T02:18:10;103062.22;;;1.37;100.00
67931;BME280;63902;52.000;5.954;2023-02-14T02:19:57;103054.34;;;1.35;100.00
67931;BME280;63902;52.000;5.954;2023-02-14T02:21:27;103058.69;;;1.34;100.00
67931;BME280;63902;52.000;5.954;2023-02-14T02:22:46;103064.72;;;1.32;100.00
67931;BME280;63902;52.000;5.954;2023-02-14T02:24:08;103052.22;;;1.23;100.00
67931;BME280;63902;52.000;5.954;2023-02-14T02:25:27;103055.03;;;1.29;100.00
67931;BME280;63902;52.000;5.954;2023-02-14T02:28:45;103062.19;;;1.35;100.00
67931;BME280;63902;52.000;5.954;2023-02-14T02:31:49;103056.22;;;1.39;100.00
67931;BME280;63902;52.000;5.954;2023-02-14T02:34:59;103051.94;;;1.41;100.00
67931;BME280;63902;52.000;5.954;2023-02-14T02:36:07;103057.06;;;1.38;100.00
67931;BME280;63902;52.000;5.954;2023-02-14T02:37:14;103047.31;;;1.34;100.00
67931;BME280;63902;52.000;5.954;2023-02-14T02:38:30;103054.16;;;1.29;100.00
67931;BME280;63902;52.000;5.954;2023-02-14T02:39:47;103053.25;;;1.28;100.00
67931;BME280;63902;52.000;5.954;2023-02-14T02:40:56;103044.50;;;1.26;100.00
67931;BME280;63902;52.000;5.954;2023-02-14T02:42:07;103050.50;;;1.24;100.00
67931;BME280;63902;52.000;5.954;2023-02-14T02:43:18;103044.38;;;1.23;100.00
67931;BME280;63902;52.000;5.954;2023-02-14T02:44:28;103050.59;;;1.27;100.00
67931;BME280;63902;52.000;5.954;2023-02-14T02:45:37;103046.25;;;1.27;100.00
67931;BME280;63902;52.000;5.954;2023-02-14T02:46:47;103044.38;;;1.23;100.00
67931;BME280;63902;52.000;5.954;2023-02-14T02:47:56;103043.47;;;1.23;100.00
67931;BME280;63902;52.000;5.954;2023-02-14T02:49:04;103051.41;;;1.26;100.00
67931;BME280;63902;52.000;5.954;2023-02-14T02:50:18;103047.88;;;1.24;100.00
67931;BME280;63902;52.000;5.954;2023-02-14T02:51:24;103043.47;;;1.23;100.00
67931;BME280;63902;52.000;5.954;2023-02-14T02:52:30;103056.44;;;1.20;100.00
67931;BME280;63902;52.000;5.954;2023-02-14T02:53:40;103048.50;;;1.17;100.00
67931;BME280;63902;52.000;5.954;2023-02-14T02:54:48;103052.78;;;1.15;100.00
67931;BME280;63902;52.000;5.954;2023-02-14T02:55:54;103048.47;;;1.15;100.00
67931;BME280;63902;52.000;5.954;2023-02-14T02:56:58;103053.72;;;1.17;100.00
67931;BME280;63902;52.000;5.954;2023-02-14T02:58:01;103053.81;;;1.18;100.00
67931;BME280;63902;52.000;5.954;2023-02-14T02:59:05;103048.59;;;1.20;100.00
67931;BME280;63902;52.000;5.954;2023-02-14T03:00:10;103053.00;;;1.21;100.00
67931;BME280;63902;52.000;5.954;2023-02-14T03:01:15;103030.84;;;1.09;100.00
67931;BME280;63902;52.000;5.954;2023-02-14T03:02:20;103050.31;;;1.18;100.00
67931;BME280;63902;52.000;5.954;2023-02-14T03:03:23;103051.03;;;1.14;100.00
67931;BME280;63902;52.000;5.954;2023-02-14T03:04:26;103050.06;;;1.11;100.00
67931;BME280;63902;52.000;5.954;2023-02-14T03:05:28;103049.19;;;1.11;100.00
67931;BME280;63902;52.000;5.954;2023-02-14T03:06:29;103052.66;;;1.10;100.00
67931;BME280;63902;52.000;5.954;2023-02-14T03:07:32;103047.41;;;1.10;100.00
67931;BME280;63902;52.000;5.954;2023-02-14T03:08:33;103044.84;;;1.11;100.00
67931;BME280;63902;52.000;5.954;2023-02-14T03:09:51;103040.47;;;1.10;100.00
67931;BME280;63902;52.000;5.954;2023-02-14T03:10:53;103042.97;;;1.07;100.00
67931;BME280;63902;52.000;5.954;2023-02-14T03:11:59;103044.63;;;1.05;100.00
67931;BME280;63902;52.000;5.954;2023-02-14T03:13:24;103044.63;;;1.05;100.00
67931;BME280;63902;52.000;5.954;2023-02-14T03:14:33;103045.59;;;1.07;100.00
67931;BME280;63902;52.000;5.954;2023-02-14T03:15:46;103050.91;;;1.10;100.00
67931;BME280;63902;52.000;5.954;2023-02-14T03:16:58;103046.41;;;1.06;100.00
67931;BME280;63902;52.000;5.954;2023-02-14T03:18:06;103042.00;;;1.04;100.00
67931;BME280;63902;52.000;5.954;2023-02-14T03:19:24;103041.81;;;0.99;100.00
67931;BME280;63902;52.000;5.954;2023-02-14T03:20:37;103040.94;;;0.99;100.00
67931;BME280;63902;52.000;5.954;2023-02-14T03:21:46;103039.00;;;0.93;100.00
67931;BME280;63902;52.000;5.954;2023-02-14T03:22:55;103045.13;;;0.94;100.00
67931;BME280;63902;52.000;5.954;2023-02-14T03:24:04;103042.44;;;0.92;100.00
67931;BME280;63902;52.000;5.954;2023-02-14T03:25:17;103042.44;;;0.92;100.00
67931;BME280;63902;52.000;5.954;2023-02-14T03:26:26;103045.13;;;0.94;100.00
67931;BME280;63902;52.000;5.954;2023-02-14T03:27:38;103037.97;;;0.88;100.00
67931;BME280;63902;52.000;5.954;2023-02-14T03:28:45;103030.13;;;0.88;100.00
67931;BME280;63902;52.000;5.954;2023-02-14T03:29:54;103032.75;;;0.89;100.00
67931;BME280;63902;52.000;5.954;2023-02-14T03:31:01;103024.78;;;0.85;100.00
67931;BME280;63902;52.000;5.954;2023-02-14T03:32:10;103034.41;;;0.86;100.00
67931;BME280;63902;52.000;5.954;2023-02-14T03:33:16;103028.22;;;0.84;100.00
67931;BME280;63902;52.000;5.954;2023-02-14T03:34:24;103030.84;;;0.84;100.00
67931;BME280;63902;52.000;5.954;2023-02-14T03:35:30;103035.25;;;0.85;100.00
67931;BME280;63902;52.000;5.954;2023-02-14T03:36:39;103035.28;;;0.86;100.00
67931;BME280;63902;52.000;5.954;2023-02-14T03:37:47;103031.78;;;0.86;100.00
67931;BME280;63902;52.000;5.954;2023-02-14T03:38:53;103017.66;;;0.81;100.00
67931;BME280;63902;52.000;5.954;2023-02-14T03:40:00;103027.41;;;0.85;100.00
67931;BME280;63902;52.000;5.954;2023-02-14T03:41:04;103032.66;;;0.86;100.00
67931;BME280;63902;52.000;5.954;2023-02-14T03:42:09;103033.50;;;0.85;100.00
67931;BME280;63902;52.000;5.954;2023-02-14T03:43:12;103031.69;;;0.83;100.00
67931;BME280;63902;52.000;5.954;2023-02-14T03:44:17;103035.13;;;0.82;100.00
67931;BME280;63902;52.000;5.954;2023-02-14T03:45:24;103031.56;;;0.80;100.00
67931;BME280;63902;52.000;5.954;2023-02-14T03:46:28;103034.13;;;0.78;100.00
67931;BME280;63902;52.000;5.954;2023-02-14T03:47:32;103036.69;;;0.77;100.00
67931;BME280;63902;52.000;5.954;2023-02-14T03:48:35;103027.88;;;0.73;100.00
67931;BME280;63902;52.000;5.954;2023-02-14T03:49:40;103024.13;;;0.66;100.00
67931;BME280;63902;52.000;5.954;2023-02-14T03:50:44;103037.31;;;0.70;100.00
67931;BME280;63902;52.000;5.954;2023-02-14T03:51:49;103034.69;;;0.70;100.00
67931;BME280;63902;52.000;5.954;2023-02-14T03:52:52;103049.59;;;0.72;100.00
67931;BME280;63902;52.000;5.954;2023-02-14T03:53:56;103040.03;;;0.73;100.00
67931;BME280;63902;52.000;5.954;2023-02-14T03:54:59;103038.25;;;0.72;100.00
67931;BME280;63902;52.000;5.954;2023-02-14T03:56:07;103038.25;;;0.72;100.00
67931;BME280;63902;52.000;5.954;2023-02-14T03:57:13;103037.25;;;0.68;100.00
67931;BME280;63902;52.000;5.954;2023-02-14T03:58:19;103041.72;;;0.71;100.00
67931;BME280;63902;52.000;5.954;2023-02-14T03:59:22;103039.91;;;0.70;100.00
67931;BME280;63902;52.000;5.954;2023-02-14T04:00:24;103038.03;;;0.65;100.00
67931;BME280;63902;52.000;5.954;2023-02-14T04:01:31;103049.44;;;0.68;100.00
67931;BME280;63902;52.000;5.954;2023-02-14T04:02:36;103040.66;;;0.65;100.00
67931;BME280;63902;52.000;5.954;2023-02-14T04:03:39;103037.19;;;0.66;100.00
67931;BME280;63902;52.000;5.954;2023-02-14T04:04:43;103042.38;;;0.65;100.00
67931;BME280;63902;52.000;5.954;2023-02-14T04:05:45;103043.19;;;0.64;100.00
67931;BME280;63902;52.000;5.954;2023-02-14T04:06:47;103038.75;;;0.61;100.00
67931;BME280;63902;52.000;5.954;2023-02-14T04:07:49;103036.03;;;0.58;100.00
67931;BME280;63902;52.000;5.954;2023-02-14T04:08:51;103040.38;;;0.58;100.00
67931;BME280;63902;52.000;5.954;2023-02-14T04:09:51;103047.41;;;0.59;100.00
67931;BME280;63902;52.000;5.954;2023-02-14T04:10:53;103049.16;;;0.60;100.00
67931;BME280;63902;52.000;5.954;2023-02-14T04:11:55;103046.47;;;0.58;100.00
67931;BME280;63902;52.000;5.954;2023-02-14T04:12:55;103048.16;;;0.56;100.00
67931;BME280;63902;52.000;5.954;2023-02-14T04:13:55;103040.28;;;0.55;100.00
67931;BME280;63902;52.000;5.954;2023-02-14T04:14:56;103052.56;;;0.57;100.00
67931;BME280;63902;52.000;5.954;2023-02-14T04:15:56;103047.31;;;0.57;100.00
67931;BME280;63902;52.000;5.954;2023-02-14T04:16:57;103049.09;;;0.58;100.00
67931;BME280;63902;52.000;5.954;2023-02-14T04:17:57;103045.59;;;0.58;100.00
67931;BME280;63902;52.000;5.954;2023-02-14T04:18:58;103048.16;;;0.56;100.00
67931;BME280;63902;52.000;5.954;2023-02-14T04:19:58;103034.88;;;0.50;100.00
67931;BME280;63902;52.000;5.954;2023-02-14T04:20:59;103048.94;;;0.54;100.00
67931;BME280;63902;52.000;5.954;2023-02-14T04:22:01;103049.81;;;0.54;100.00
67931;BME280;63902;52.000;5.954;2023-02-14T04:23:01;103047.16;;;0.53;100.00
67931;BME280;63902;52.000;5.954;2023-02-14T04:24:02;103049.72;;;0.51;100.00
67931;BME280;63902;52.000;5.954;2023-02-14T04:25:03;103042.59;;;0.47;100.00
67931;BME280;63902;52.000;5.954;2023-02-14T04:26:04;103031.09;;;0.42;100.00
67931;BME280;63902;52.000;5.954;2023-02-14T04:27:05;103046.25;;;0.52;100.00
67931;BME280;63902;52.000;5.954;2023-02-14T04:28:05;103047.91;;;0.50;100.00
67931;BME280;63902;52.000;5.954;2023-02-14T04:29:06;103041.66;;;0.45;100.00
67931;BME280;63902;52.000;5.954;2023-02-14T04:30:07;103038.91;;;0.42;100.00
67931;BME280;63902;52.000;5.954;2023-02-14T04:31:08;103046.16;;;0.49;100.00
67931;BME280;63902;52.000;5.954;2023-02-14T04:32:10;103048.78;;;0.49;100.00
67931;BME280;63902;52.000;5.954;2023-02-14T04:33:11;103038.22;;;0.46;100.00
67931;BME280;63902;52.000;5.954;2023-02-14T04:34:12;103042.50;;;0.44;100.00
67931;BME280;63902;52.000;5.954;2023-02-14T04:35:13;103041.53;;;0.42;100.00
67931;BME280;63902;52.000;5.954;2023-02-14T04:36:13;103048.56;;;0.43;100.00
67931;BME280;63902;52.000;5.954;2023-02-14T04:37:17;103054.59;;;0.42;100.00
67931;BME280;63902;52.000;5.954;2023-02-14T04:38:18;103052.94;;;0.44;100.00
67931;BME280;63902;52.000;5.954;2023-02-14T04:39:18;103040.63;;;0.40;100.00
67931;BME280;63902;52.000;5.954;2023-02-14T04:40:19;103046.75;;;0.42;100.00
67931;BME280;63902;52.000;5.954;2023-02-14T04:41:19;103051.97;;;0.42;100.00
67931;BME280;63902;52.000;5.954;2023-02-14T04:42:20;103053.66;;;0.40;100.00
67931;BME280;63902;52.000;5.954;2023-02-14T04:43:20;103051.88;;;0.39;100.00
67931;BME280;63902;52.000;5.954;2023-02-14T04:44:21;103044.88;;;0.38;100.00
67931;BME280;63902;52.000;5.954;2023-02-14T04:45:21;103051.88;;;0.39;100.00
67931;BME280;63902;52.000;5.954;2023-02-14T04:46:22;103045.72;;;0.37;100.00
67931;BME280;63902;52.000;5.954;2023-02-14T04:47:22;103037.03;;;0.38;100.00
67931;BME280;63902;52.000;5.954;2023-02-14T04:48:23;103030.75;;;0.33;100.00
67931;BME280;63902;52.000;5.954;2023-02-14T04:49:23;103044.00;;;0.37;100.00
67931;BME280;63902;52.000;5.954;2023-02-14T04:50:24;103036.19;;;0.39;100.00
67931;BME280;63902;52.000;5.954;2023-02-14T04:51:25;103039.84;;;0.42;100.00
67931;BME280;63902;52.000;5.954;2023-02-14T04:52:26;103033.84;;;0.45;100.00
67931;BME280;63902;52.000;5.954;2023-02-14T04:53:27;103032.03;;;0.44;100.00
67931;BME280;63902;52.000;5.954;2023-02-14T04:54:28;103027.66;;;0.43;100.00
67931;BME280;63902;52.000;5.954;2023-02-14T04:55:28;103029.31;;;0.41;100.00
67931;BME280;63902;52.000;5.954;2023-02-14T04:56:28;103031.09;;;0.42;100.00
67931;BME280;63902;52.000;5.954;2023-02-14T04:57:29;103027.59;;;0.41;100.00
67931;BME280;63902;52.000;5.954;2023-02-14T04:58:29;103028.25;;;0.36;100.00
67931;BME280;63902;52.000;5.954;2023-02-14T04:59:30;103030.94;;;0.37;100.00
67931;BME280;63902;52.000;5.954;2023-02-14T05:00:30;103026.44;;;0.33;100.00
67931;BME280;63902;52.000;5.954;2023-02-14T05:01:31;103029.88;;;0.32;100.00
67931;BME280;63902;52.000;5.954;2023-02-14T05:02:31;103025.53;;;0.33;100.00
67931;BME280;63902;52.000;5.954;2023-02-14T05:03:32;103030.00;;;0.35;100.00
67931;BME280;63902;52.000;5.954;2023-02-14T05:04:32;103019.44;;;0.32;100.00
67931;BME280;63902;52.000;5.954;2023-02-14T05:05:33;103023.81;;;0.33;100.00
67931;BME280;63902;52.000;5.954;2023-02-14T05:06:33;103023.81;;;0.33;100.00
67931;BME280;63902;52.000;5.954;2023-02-14T05:07:35;103018.66;;;0.35;100.00
67931;BME280;63902;52.000;5.954;2023-02-14T05:08:35;103022.16;;;0.35;100.00
67931;BME280;63902;52.000;5.954;2023-02-14T05:09:36;103022.13;;;0.34;100.00
67931;BME280;63902;52.000;5.954;2023-02-14T05:10:36;103021.97;;;0.31;100.00
67931;BME280;63902;52.000;5.954;2023-02-14T05:11:37;103016.72;;;0.29;100.00
67931;BME280;63902;52.000;5.954;2023-02-14T05:12:37;103014.22;;;0.32;100.00
67931;BME280;63902;52.000;5.954;2023-02-14T05:13:38;103012.50;;;0.33;100.00
67931;BME280;63902;52.000;5.954;2023-02-14T05:14:38;103013.34;;;0.32;100.00
67931;BME280;63902;52.000;5.954;2023-02-14T05:15:39;103014.13;;;0.29;100.00
67931;BME280;63902;52.000;5.954;2023-02-14T05:16:39;103006.22;;;0.28;100.00
67931;BME280;63902;52.000;5.954;2023-02-14T05:17:40;103008.78;;;0.26;100.00
67931;BME280;63902;52.000;5.954;2023-02-14T05:18:40;103014.78;;;0.24;100.00
67931;BME280;63902;52.000;5.954;2023-02-14T05:19:40;103012.16;;;0.24;100.00
67931;BME280;63902;52.000;5.954;2023-02-14T05:20:41;103006.72;;;0.17;100.00
67931;BME280;63902;52.000;5.954;2023-02-14T05:21:41;103000.84;;;0.23;100.00
67931;BME280;63902;52.000;5.954;2023-02-14T05:22:43;103012.16;;;0.24;100.00
67931;BME280;63902;52.000;5.954;2023-02-14T05:23:44;103001.63;;;0.20;100.00
67931;BME280;63902;52.000;5.954;2023-02-14T05:24:44;102998.94;;;0.19;100.00
67931;BME280;63902;52.000;5.954;2023-02-14T05:25:47;103008.59;;;0.21;100.00
67931;BME280;63902;52.000;5.954;2023-02-14T05:26:47;103008.59;;;0.21;100.00
67931;BME280;63902;52.000;5.954;2023-02-14T05:27:48;103006.84;;;0.20;100.00
67931;BME280;63902;52.000;5.954;2023-02-14T05:28:48;103007.66;;;0.19;100.00
67931;BME280;63902;52.000;5.954;2023-02-14T05:29:49;102996.09;;;0.13;100.00
67931;BME280;63902;52.000;5.954;2023-02-14T05:30:50;103004.94;;;0.16;100.00
67931;BME280;63902;52.000;5.954;2023-02-14T05:31:50;103004.00;;;0.14;100.00
67931;BME280;63902;52.000;5.954;2023-02-14T05:32:51;103006.53;;;0.13;100.00
67931;BME280;63902;52.000;5.954;2023-02-14T05:33:52;103006.53;;;0.13;100.00
67931;BME280;63902;52.000;5.954;2023-02-14T05:34:52;103011.75;;;0.13;100.00
67931;BME280;63902;52.000;5.954;2023-02-14T05:35:52;103001.22;;;0.10;100.00
67931;BME280;63902;52.000;5.954;2023-02-14T05:36:53;103007.38;;;0.12;100.00